Time;durP1;ratioP1;P1;durP2;ratioP2;P2;SDS_P1;SDS_P2;PMS_P1;PMS_P2;Temp;Humidity;BMP_temperature;BMP_pressure;BME280_temperature;BME280_humidity;BME280_pressure;Samples;Min_cycle;Max_cycle;Signal;HPM_P1;HPM_P2
2022/12/05 00:00:20;;;;;;;;;24.25;21.50;;;;;5.34;68.77;100836.47;6117146;23;45788;-81
2022/12/05 00:02:46;;;;;;;;;24.25;17.75;;;;;5.33;68.94;100837.38;6117867;23;45922;-81
2022/12/05 00:05:11;;;;;;;;;27.75;23.00;;;;;4.95;68.74;100780.22;6144167;23;47345;-79
2022/12/05 00:07:42;;;;;;;;;35.75;28.25;;;;;4.98;68.78;100787.88;6116524;23;48311;-81
2022/12/05 00:10:18;;;;;;;;;;;;;;;;;;;;;
2022/12/05 00:12:44;;;;;;;;;29.25;21.50;;;;;5.27;68.40;100838.50;6142739;23;69164;-82
2022/12/05 00:15:11;;;;;;;;;29.25;23.50;;;;;4.94;68.64;100791.53;6118504;23;46590;-83
2022/12/05 00:17:38;;;;;;;;;34.25;26.00;;;;;5.05;68.60;100810.06;6116171;23;46268;-82
2022/12/05 00:20:04;;;;;;;;;32.25;24.75;;;;;4.87;68.88;100782.31;6143209;23;45665;-81
2022/12/05 00:22:30;;;;;;;;;30.25;23.25;;;;;4.93;68.56;100791.59;6143469;23;45462;-81
2022/12/05 00:24:55;;;;;;;;;29.25;22.75;;;;;5.29;68.55;100856.63;6143843;23;46631;-81
2022/12/05 00:27:21;;;;;;;;;30.00;25.00;;;;;5.32;68.51;100853.84;6142968;23;45654;-81
2022/12/05 00:29:46;;;;;;;;;27.00;24.50;;;;;4.91;69.03;100783.84;6117088;23;45724;-81
2022/12/05 00:32:11;;;;;;;;;30.50;24.00;;;;;5.35;68.59;100856.31;6118105;23;46286;-81
2022/12/05 00:34:38;;;;;;;;;26.50;19.00;;;;;5.22;68.66;100837.84;6144771;23;46313;-82
2022/12/05 00:37:03;;;;;;;;;33.00;25.75;;;;;5.34;68.98;100852.06;6142816;23;46587;-81
2022/12/05 00:39:29;;;;;;;;;26.00;21.75;;;;;5.17;68.43;100831.19;6143868;23;46086;-81
2022/12/05 00:41:54;;;;;;;;;31.00;24.25;;;;;5.28;68.86;100839.34;6145101;23;45667;-82
2022/12/05 00:44:20;;;;;;;;;40.00;26.00;;;;;5.33;69.11;100852.97;6144185;23;45867;-83
2022/12/05 00:46:48;;;;;;;;;31.00;24.75;;;;;5.26;69.04;100833.34;6143850;23;45927;-83
2022/12/05 00:49:13;;;;;;;;;30.75;24.50;;;;;5.12;68.95;100814.97;6143539;23;45953;-81
2022/12/05 00:51:41;;;;;;;;;35.00;25.50;;;;;5.37;68.39;100859.69;6144912;23;45868;-81
2022/12/05 00:54:10;;;;;;;;;30.75;23.25;;;;;5.36;68.89;100856.25;6118345;23;46487;-82
2022/12/05 00:56:36;;;;;;;;;26.00;25.00;;;;;4.94;69.25;100783.72;6143502;23;45957;-82
2022/12/05 00:59:03;;;;;;;;;32.00;25.50;;;;;5.01;68.73;100803.31;6143783;23;46067;-80
2022/12/05 01:01:40;;;;;;;;;29.50;25.50;;;;;5.31;68.66;100863.41;6144089;23;45839;-81
2022/12/05 01:04:12;;;;;;;;;21.75;14.75;;;;;5.29;69.20;100862.63;6143268;23;45719;-81
2022/12/05 01:06:38;;;;;;;;;34.50;24.50;;;;;5.05;69.04;100837.78;6142862;23;46644;-82
2022/12/05 01:09:04;;;;;;;;;36.00;25.25;;;;;4.95;68.95;100819.16;6143881;23;45788;-80
2022/12/05 01:11:33;;;;;;;;;35.50;25.00;;;;;5.26;68.67;100867.13;6143380;23;45757;-81
2022/12/05 01:14:04;;;;;;;;;30.25;22.00;;;;;5.02;68.88;100833.53;6143507;23;47139;-81
2022/12/05 01:16:33;;;;;;;;;38.00;26.25;;;;;5.00;69.01;100831.94;6142571;23;46135;-81
2022/12/05 01:19:00;;;;;;;;;25.00;23.25;;;;;5.14;69.00;100865.91;6117362;23;45929;-81
2022/12/05 01:21:26;;;;;;;;;33.00;28.25;;;;;5.21;68.89;100885.50;6143695;23;45702;-82
2022/12/05 01:23:57;;;;;;;;;27.50;25.75;;;;;4.98;69.17;100847.56;6116683;23;48155;-81
2022/12/05 01:26:23;;;;;;;;;31.25;26.50;;;;;5.04;68.62;100870.69;6143182;23;46231;-82
2022/12/05 01:28:49;;;;;;;;;32.50;26.75;;;;;5.09;68.81;100886.03;6141663;23;45908;-80
2022/12/05 01:31:26;;;;;;;;;34.25;26.25;;;;;5.23;68.89;100893.25;6116982;23;46063;-82
2022/12/05 01:33:56;;;;;;;;;31.75;23.50;;;;;5.04;69.04;100862.03;6116215;23;46440;-81
2022/12/05 01:36:23;;;;;;;;;33.25;25.50;;;;;5.14;69.31;100878.03;6143424;23;46171;-80
2022/12/05 01:38:48;;;;;;;;;30.50;24.75;;;;;5.18;68.98;100882.22;6116150;23;45804;-80
2022/12/05 01:41:24;;;;;;;;;31.50;26.00;;;;;5.17;69.05;100891.75;6143376;23;45713;-80
2022/12/05 01:47:16;;;;;;;;;35.00;30.00;;;;;5.30;69.26;100912.81;6143065;23;45986;-81
2022/12/05 01:50:26;;;;;;;;;;;;;;;;;;;;;
2022/12/05 01:53:05;;;;;;;;;22.50;20.50;;;;;5.06;68.94;100909.56;6142609;23;66803;-81
2022/12/05 01:55:55;;;;;;;;;32.50;23.00;;;;;4.96;69.20;100877.13;6114936;23;47115;-82
2022/12/05 01:58:44;;;;;;;;;28.75;25.75;;;;;5.34;69.09;100948.16;6143508;23;45592;-80
2022/12/05 02:01:18;;;;;;;;;29.75;25.25;;;;;4.91;69.00;100874.69;6118051;23;46025;-82
2022/12/05 02:04:27;;;;;;;;;34.00;28.50;;;;;4.72;69.15;100849.63;6145855;23;45971;-80
2022/12/05 02:07:14;;;;;;;;;32.75;25.25;;;;;4.99;69.09;100887.38;6021477;23;45811;-81
2022/12/05 02:09:52;;;;;;;;;39.50;30.25;;;;;5.17;69.15;100917.72;6053008;23;46084;-81
2022/12/05 02:12:23;;;;;;;;;30.75;27.75;;;;;4.75;69.04;100849.50;6053061;23;46024;-81
2022/12/05 02:15:03;;;;;;;;;47.50;36.50;;;;;5.37;68.69;100945.41;6053705;23;45940;-80
2022/12/05 02:18:25;;;;;;;;;31.75;27.25;;;;;5.35;69.06;100940.28;6052684;23;46307;-82
2022/12/05 02:21:35;;;;;;;;;42.75;38.00;;;;;5.33;68.80;100930.88;5995197;23;46236;-81
2022/12/05 02:24:42;;;;;;;;;39.75;33.25;;;;;5.31;68.61;100936.13;5883592;24;46547;-79
2022/12/05 02:27:17;;;;;;;;;34.00;27.75;;;;;5.31;68.89;100941.34;5883497;24;45968;-80
2022/12/05 02:30:00;;;;;;;;;34.50;25.25;;;;;5.08;68.79;100905.97;5884480;24;45826;-80
2022/12/05 02:32:29;;;;;;;;;36.75;29.50;;;;;5.30;68.95;100939.63;5933516;23;46766;-81
2022/12/05 02:35:14;;;;;;;;;43.25;34.00;;;;;5.13;68.63;100904.94;5939922;23;46262;-81
2022/12/05 02:37:52;;;;;;;;;38.50;29.50;;;;;5.28;69.19;100940.63;5938845;23;45939;-79
2022/12/05 02:40:29;;;;;;;;;45.00;33.75;;;;;5.27;68.71;100949.31;5939583;23;46330;-81
2022/12/05 02:43:36;;;;;;;;;31.00;25.00;;;;;5.22;68.72;100940.91;5940588;23;46226;-82
2022/12/05 02:46:28;;;;;;;;;28.75;22.25;;;;;4.62;68.77;100850.03;5939157;23;45755;-80
2022/12/05 02:48:59;;;;;;;;;33.00;30.50;;;;;4.54;69.14;100846.91;5860471;24;45691;-80
2022/12/05 02:51:46;;;;;;;;;;;;;;;;;;;;;
2022/12/05 02:54:23;;;;;;;;;32.00;27.00;;;;;4.82;68.91;100895.88;5879416;24;75394;-81
2022/12/05 02:56:51;;;;;;;;;39.75;27.25;;;;;4.77;69.32;100900.41;5882471;24;45837;-82
2022/12/05 02:59:17;;;;;;;;;39.50;33.50;;;;;4.94;69.31;100917.88;5861921;24;45579;-82
2022/12/05 03:01:45;;;;;;;;;40.00;26.75;;;;;5.00;69.59;100933.19;6006967;23;45692;-82
2022/12/05 03:04:12;;;;;;;;;33.75;29.00;;;;;4.97;69.36;100928.97;6024043;23;47524;-81
2022/12/05 03:06:56;;;;;;;;;35.25;29.75;;;;;4.93;69.85;100918.78;6023718;23;46244;-80
2022/12/05 03:09:27;;;;;;;;;34.75;28.00;;;;;5.02;69.75;100940.00;6023909;23;45872;-81
2022/12/05 03:15:46;;;;;;;;;33.75;28.25;;;;;4.96;69.63;100942.03;5829357;24;46286;-82
2022/12/05 03:18:25;;;;;;;;;33.75;28.00;;;;;4.76;69.84;100916.88;5834961;23;45998;-81
2022/12/05 03:21:20;;;;;;;;;30.25;23.50;;;;;4.93;70.06;100945.59;5939107;23;45709;-80
2022/12/05 03:23:55;;;;;;;;;34.25;25.50;;;;;4.70;69.92;100911.97;5938712;23;46497;-81
2022/12/05 03:26:39;;;;;;;;;31.50;25.00;;;;;4.93;70.02;100949.94;5938883;23;46116;-79
2022/12/05 03:29:32;;;;;;;;;41.25;27.50;;;;;4.92;69.84;100948.22;5940820;23;45626;-80
2022/12/05 03:32:23;;;;;;;;;30.75;26.75;;;;;4.86;69.93;100945.91;5943874;23;45754;-81
2022/12/05 03:35:02;;;;;;;;;33.75;28.25;;;;;4.91;69.90;100951.75;6025599;23;46494;-81
2022/12/05 03:37:49;;;;;;;;;33.25;24.50;;;;;4.89;70.01;100945.78;6022723;23;46982;-80
2022/12/05 03:40:28;;;;;;;;;29.50;24.25;;;;;4.88;69.91;100963.09;6025018;23;45978;-81
2022/12/05 03:43:17;;;;;;;;;29.00;24.75;;;;;4.88;69.99;100957.91;6025343;23;45665;-81
2022/12/05 03:45:55;;;;;;;;;27.25;24.25;;;;;4.86;70.08;100956.31;6024413;23;46247;-80
2022/12/05 03:48:34;;;;;;;;;36.00;29.00;;;;;4.84;70.06;100958.97;6022040;23;47211;-80
2022/12/05 03:51:03;;;;;;;;;32.75;28.25;;;;;4.82;70.17;100958.16;6068106;23;45899;-80
2022/12/05 03:53:40;;;;;;;;;35.25;27.50;;;;;4.73;69.93;100953.38;6144692;23;45896;-82
2022/12/05 03:56:13;;;;;;;;;32.00;28.50;;;;;4.78;70.00;100973.94;6143392;23;47262;-81
2022/12/05 03:58:55;;;;;;;;;35.75;29.00;;;;;4.65;70.57;100958.84;6144170;23;45831;-80
2022/12/05 04:01:23;;;;;;;;;27.25;24.75;;;;;4.50;70.03;100936.16;6118151;23;46012;-80
2022/12/05 04:03:56;;;;;;;;;36.25;28.50;;;;;4.71;70.34;100970.75;6144848;23;45568;-80
2022/12/05 04:06:34;;;;;;;;;36.50;31.75;;;;;4.64;70.39;100967.53;6142937;23;46000;-80
2022/12/05 04:09:17;;;;;;;;;41.25;29.25;;;;;4.75;70.32;100981.84;6117221;23;47771;-80
2022/12/05 04:11:49;;;;;;;;;36.75;27.00;;;;;4.75;70.62;100987.88;6144657;23;46108;-80
2022/12/05 04:14:20;;;;;;;;;25.75;22.75;;;;;4.61;70.69;100967.69;6145066;23;45888;-80
2022/12/05 04:17:03;;;;;;;;;34.00;32.00;;;;;4.67;70.46;100984.75;6143551;23;45546;-79
2022/12/05 04:22:28;;;;;;;;;36.50;28.50;;;;;4.74;70.51;100990.53;6143810;23;45743;-80
2022/12/05 04:27:59;;;;;;;;;24.75;24.75;;;;;4.70;70.13;100989.81;6143499;23;45941;-82
2022/12/05 04:30:49;;;;;;;;;24.00;21.25;;;;;4.71;70.03;100995.84;6118054;23;47418;-81
2022/12/05 04:33:22;;;;;;;;;41.25;34.00;;;;;4.59;70.38;100982.47;6143031;23;45844;-79
2022/12/05 04:36:01;;;;;;;;;28.50;22.00;;;;;4.71;70.47;100994.09;6144925;23;45908;-79
2022/12/05 04:38:34;;;;;;;;;34.50;31.25;;;;;4.70;70.18;100995.00;6142290;23;46288;-81
2022/12/05 04:41:06;;;;;;;;;45.00;31.00;;;;;4.67;70.28;100997.72;6144557;23;45761;-81
2022/12/05 04:43:38;;;;;;;;;46.25;36.25;;;;;4.62;70.26;100987.53;6116408;23;46196;-80
2022/12/05 04:46:08;;;;;;;;;43.75;34.00;;;;;4.44;70.79;100959.72;6144040;23;46072;-80
2022/12/05 04:48:37;;;;;;;;;37.00;30.00;;;;;4.67;70.68;101002.06;6143062;23;45870;-79
2022/12/05 04:51:06;;;;;;;;;40.50;29.75;;;;;4.64;70.79;101010.84;6143738;23;46232;-81
2022/12/05 04:53:33;;;;;;;;;40.50;29.75;;;;;4.40;70.73;100968.56;6144048;23;45610;-81
2022/12/05 04:56:01;;;;;;;;;32.25;28.75;;;;;4.44;70.27;100979.63;6144472;23;45988;-80
2022/12/05 04:58:28;;;;;;;;;39.00;36.00;;;;;4.49;70.41;100999.31;6142621;23;45854;-80
2022/12/05 05:01:03;;;;;;;;;39.00;30.50;;;;;4.54;70.42;101010.34;6144127;23;46247;-79
2022/12/05 05:03:34;;;;;;;;;41.50;33.75;;;;;4.48;70.79;101014.94;6143823;23;45583;-79
2022/12/05 05:06:00;;;;;;;;;40.75;34.00;;;;;4.46;70.68;101020.19;6143314;23;45781;-81
2022/12/05 05:08:28;;;;;;;;;43.75;31.00;;;;;4.47;70.96;101021.03;6142566;23;45561;-81
2022/12/05 05:11:14;;;;;;;;;37.25;31.50;;;;;4.46;70.50;101019.34;6144310;23;46109;-81
2022/12/05 05:13:40;;;;;;;;;38.25;33.25;;;;;4.47;70.86;101019.28;6143887;23;45637;-81
2022/12/05 05:16:05;;;;;;;;;37.75;29.50;;;;;4.47;71.52;101016.69;6143285;23;45578;-81
2022/12/05 05:18:33;;;;;;;;;36.75;29.75;;;;;4.48;71.22;101017.53;6143634;23;46541;-80
2022/12/05 05:20:59;;;;;;;;;31.75;27.75;;;;;4.27;71.31;100982.88;6143352;23;46286;-79
2022/12/05 05:23:24;;;;;;;;;27.75;24.25;;;;;4.48;70.61;101017.53;6116656;23;45654;-80
2022/12/05 05:25:55;;;;;;;;;35.25;31.25;;;;;4.49;71.10;101025.25;6143997;23;45980;-80
2022/12/05 05:28:21;;;;;;;;;31.50;21.50;;;;;4.38;70.79;101005.81;6142762;23;45564;-80
2022/12/05 05:30:47;;;;;;;;;26.00;22.50;;;;;4.41;71.27;101009.16;6144136;23;46121;-81
2022/12/05 05:33:12;;;;;;;;;33.50;28.00;;;;;4.49;71.06;101027.00;6144336;23;45735;-80
2022/12/05 05:35:38;;;;;;;;;33.75;29.00;;;;;4.54;71.09;101030.25;6144987;23;45476;-80
2022/12/05 05:38:04;;;;;;;;;26.25;19.00;;;;;4.50;71.27;101024.34;6143278;23;46963;-80
2022/12/05 05:40:29;;;;;;;;;24.50;23.25;;;;;4.51;71.38;101028.63;6144843;23;47033;-79
2022/12/05 05:42:55;;;;;;;;;34.75;25.25;;;;;4.44;71.19;101032.38;6145886;23;45577;-80
2022/12/05 05:45:20;;;;;;;;;27.00;25.25;;;;;4.35;71.12;101022.34;6144609;23;45746;-80
2022/12/05 05:47:48;;;;;;;;;27.50;24.00;;;;;4.31;70.85;101015.59;6142491;23;46290;-80
2022/12/05 05:50:13;;;;;;;;;36.00;28.50;;;;;4.40;71.48;101036.00;6118040;23;47015;-81
2022/12/05 05:52:39;;;;;;;;;32.00;24.00;;;;;4.36;71.61;101033.56;6144855;23;45701;-81
2022/12/05 05:55:05;;;;;;;;;32.75;27.50;;;;;4.46;71.10;101048.72;6144920;23;45712;-81
2022/12/05 05:57:31;;;;;;;;;34.50;25.50;;;;;4.40;71.55;101043.78;6143544;23;47149;-80
2022/12/05 05:59:56;;;;;;;;;35.00;26.25;;;;;4.46;71.33;101050.47;6145213;23;46301;-82
2022/12/05 06:02:22;;;;;;;;;36.75;28.00;;;;;4.32;71.55;101034.59;6145253;23;45866;-81
2022/12/05 06:04:47;;;;;;;;;32.50;26.25;;;;;4.47;71.54;101057.34;6144940;23;46249;-82
2022/12/05 06:07:12;;;;;;;;;29.75;22.50;;;;;4.48;71.31;101057.28;6144356;23;45773;-80
2022/12/05 06:09:38;;;;;;;;;34.75;27.00;;;;;4.46;71.39;101060.84;6144839;23;45877;-79
2022/12/05 06:12:03;;;;;;;;;23.00;17.50;;;;;4.52;71.40;101066.66;6145009;23;46140;-81
2022/12/05 06:14:29;;;;;;;;;12.25;8.00;;;;;4.54;71.22;101069.16;6118267;23;45567;-79
2022/12/05 06:16:54;;;;;;;;;30.75;24.25;;;;;4.40;71.24;101041.19;6144148;23;46199;-80
2022/12/05 06:19:19;;;;;;;;;28.25;22.50;;;;;4.49;71.20;101068.50;6144431;23;45606;-79
2022/12/05 06:21:48;;;;;;;;;23.25;20.25;;;;;4.52;71.30;101069.25;6145499;23;45859;-80
2022/12/05 06:24:13;;;;;;;;;25.50;21.00;;;;;4.47;71.14;101062.53;6145343;23;46038;-79
2022/12/05 06:26:38;;;;;;;;;32.50;23.25;;;;;4.52;71.51;101077.03;6144142;23;46408;-81
2022/12/05 06:29:04;;;;;;;;;22.50;21.25;;;;;4.50;71.52;101072.78;6145069;23;45713;-79
2022/12/05 06:31:30;;;;;;;;;27.00;24.00;;;;;4.51;71.51;101084.84;6148093;23;45684;-80
2022/12/05 06:34:00;;;;;;;;;31.75;21.50;;;;;4.49;71.26;101081.47;6150257;23;45740;-81
2022/12/05 06:36:27;;;;;;;;;26.25;21.00;;;;;4.46;71.12;101079.84;6149547;23;46593;-81
2022/12/05 06:38:52;;;;;;;;;29.50;24.25;;;;;4.48;71.39;101091.00;6149743;23;47138;-79
2022/12/05 06:41:19;;;;;;;;;31.25;25.25;;;;;4.50;71.47;101096.13;6151247;23;45545;-81
2022/12/05 06:43:45;;;;;;;;;27.75;25.75;;;;;4.49;71.59;101097.03;6150472;23;45610;-82
2022/12/05 06:46:13;;;;;;;;;25.75;21.50;;;;;4.46;71.30;101102.34;6149304;23;46388;-81
2022/12/05 06:48:39;;;;;;;;;27.50;21.25;;;;;4.39;71.55;101093.09;6150447;23;45458;-80
2022/12/05 06:51:08;;;;;;;;;34.75;27.00;;;;;4.29;71.57;101092.59;6150654;23;45574;-81
2022/12/05 06:53:34;;;;;;;;;31.50;24.50;;;;;4.30;71.66;101089.13;6149056;23;45609;-81
2022/12/05 06:56:02;;;;;;;;;32.25;23.50;;;;;4.25;71.48;101082.41;6147970;23;46395;-83
2022/12/05 06:58:28;;;;;;;;;30.50;24.25;;;;;4.34;71.60;101105.41;6149505;23;46659;-83
2022/12/05 07:03:38;;;;;;;;;30.25;27.00;;;;;4.35;71.53;101113.13;6144628;23;45507;-81
2022/12/05 07:06:05;;;;;;;;;30.25;26.75;;;;;4.32;71.52;101117.59;6144101;23;45715;-78
2022/12/05 07:08:32;;;;;;;;;31.25;24.50;;;;;4.29;71.70;101112.50;6143756;23;46035;-81
2022/12/05 07:10:57;;;;;;;;;28.50;24.50;;;;;4.28;72.16;101113.41;6140513;23;45687;-77
2022/12/05 07:13:23;;;;;;;;;30.50;23.75;;;;;4.34;71.72;101134.78;6146352;23;45749;-75
2022/12/05 07:15:49;;;;;;;;;35.50;28.50;;;;;4.36;71.74;101132.13;6144182;23;46271;-76
2022/12/05 07:18:16;;;;;;;;;32.75;26.00;;;;;4.40;71.88;101131.97;6143788;23;45925;-77
2022/12/05 07:20:42;;;;;;;;;30.75;25.50;;;;;4.44;72.05;101135.28;6145109;23;46029;-76
2022/12/05 07:23:07;;;;;;;;;34.75;23.50;;;;;4.45;71.70;101135.22;6144069;23;45616;-77
2022/12/05 07:25:33;;;;;;;;;31.25;26.00;;;;;4.50;71.94;101128.13;6143484;23;45761;-77
2022/12/05 07:27:58;;;;;;;;;28.25;24.00;;;;;4.56;71.63;101145.19;6116059;23;46371;-77
2022/12/05 07:30:23;;;;;;;;;27.25;24.00;;;;;4.57;71.35;101144.28;6144738;23;45664;-75
2022/12/05 07:32:49;;;;;;;;;29.25;22.75;;;;;4.55;71.10;101135.72;6144268;23;46117;-76
2022/12/05 07:35:14;;;;;;;;;29.75;23.75;;;;;4.54;71.28;101137.47;6144949;23;45669;-77
2022/12/05 07:37:39;;;;;;;;;30.25;20.25;;;;;4.59;70.64;101148.50;6143394;23;46127;-77
2022/12/05 07:40:05;;;;;;;;;27.50;21.50;;;;;4.58;71.21;101148.59;6144402;23;45598;-78
2022/12/05 07:42:31;;;;;;;;;26.50;19.25;;;;;4.51;71.07;101140.19;6144848;23;45804;-78
2022/12/05 07:44:56;;;;;;;;;21.25;19.50;;;;;4.52;70.98;101157.44;6144393;23;46478;-79
2022/12/05 07:47:22;;;;;;;;;30.75;24.00;;;;;4.44;70.95;101150.84;6115485;23;47916;-80
2022/12/05 07:49:47;;;;;;;;;25.75;21.00;;;;;4.49;70.74;101164.47;6144450;23;45690;-79
2022/12/05 07:52:12;;;;;;;;;23.50;19.50;;;;;4.47;70.43;101168.91;6145042;23;45765;-78
2022/12/05 07:54:37;;;;;;;;;22.25;17.00;;;;;4.46;70.63;101167.19;6143990;23;46505;-79
2022/12/05 07:57:03;;;;;;;;;25.50;21.00;;;;;4.42;70.73;101163.88;6143808;23;45684;-79
2022/12/05 07:59:28;;;;;;;;;28.75;25.75;;;;;4.47;70.72;101168.91;6143508;23;45605;-79
2022/12/05 08:01:54;;;;;;;;;22.25;22.00;;;;;4.46;70.77;101178.44;6144981;23;45759;-78
2022/12/05 08:04:19;;;;;;;;;22.00;19.75;;;;;4.43;71.02;101181.13;6117796;23;46478;-78
2022/12/05 08:06:44;;;;;;;;;20.75;18.25;;;;;4.46;71.09;101177.56;6144134;23;45565;-78
2022/12/05 08:09:10;;;;;;;;;23.50;21.50;;;;;4.47;70.92;101177.53;6144094;23;45981;-78
2022/12/05 08:11:35;;;;;;;;;27.50;24.50;;;;;4.50;70.84;101192.97;6144980;23;45696;-79
2022/12/05 08:14:03;;;;;;;;;24.75;22.75;;;;;4.42;71.09;101179.44;6144044;23;45945;-76
2022/12/05 08:16:30;;;;;;;;;29.00;22.25;;;;;4.54;70.80;101185.91;6117071;23;47243;-78
2022/12/05 08:19:01;;;;;;;;;31.25;24.25;;;;;4.46;70.79;101190.53;6144273;23;45515;-78
2022/12/05 08:21:27;;;;;;;;;27.25;22.50;;;;;4.56;70.59;101202.28;6144466;23;45897;-77
2022/12/05 08:23:53;;;;;;;;;29.00;26.50;;;;;4.57;70.64;101198.78;6144183;23;45760;-81
2022/12/05 08:26:23;;;;;;;;;35.00;26.00;;;;;4.56;70.53;101192.75;6142797;23;47115;-79
2022/12/05 08:28:57;;;;;;;;;29.00;25.25;;;;;4.59;70.52;101194.38;6117496;23;45755;-78
2022/12/05 08:31:24;;;;;;;;;34.75;27.25;;;;;4.62;70.57;101199.47;6144201;23;45653;-79
2022/12/05 08:33:50;;;;;;;;;32.50;24.25;;;;;4.57;70.71;101186.66;6143839;23;46514;-79
2022/12/05 08:36:16;;;;;;;;;35.00;28.50;;;;;4.61;70.43;101196.00;6143787;23;46179;-78
2022/12/05 08:38:44;;;;;;;;;26.75;22.25;;;;;4.64;70.39;101192.47;6117314;23;45994;-78
2022/12/05 08:41:13;;;;;;;;;26.75;24.00;;;;;4.69;70.90;101203.53;6118270;23;45826;-79
2022/12/05 08:43:40;;;;;;;;;33.25;25.25;;;;;4.55;70.60;101178.06;6118509;23;46876;-78
2022/12/05 08:46:06;;;;;;;;;28.50;23.25;;;;;4.69;71.08;101211.31;6144000;23;47003;-79
2022/12/05 08:48:33;;;;;;;;;29.25;26.00;;;;;4.65;71.00;101207.13;6144127;23;45533;-81
2022/12/05 08:51:03;;;;;;;;;22.25;20.25;;;;;4.54;71.17;101199.72;6145311;23;45729;-79
2022/12/05 08:53:28;;;;;;;;;24.00;18.75;;;;;4.46;71.10;101188.81;6145244;23;45915;-78
2022/12/05 08:55:54;;;;;;;;;32.75;27.50;;;;;4.56;71.29;101210.06;6150296;23;45651;-79
2022/12/05 08:58:19;;;;;;;;;32.75;27.25;;;;;4.54;71.12;101209.25;6150368;23;45984;-79
2022/12/05 09:00:44;;;;;;;;;46.25;29.50;;;;;4.51;71.22;101211.97;6149459;23;45571;-79
2022/12/05 09:03:10;;;;;;;;;36.00;30.50;;;;;4.51;71.68;101212.81;6149151;23;46144;-76
2022/12/05 09:05:36;;;;;;;;;35.00;27.00;;;;;4.47;71.48;101216.44;6148645;23;46920;-78
2022/12/05 09:08:02;;;;;;;;;34.50;27.25;;;;;4.51;71.66;101224.94;6144386;23;45592;-78
2022/12/05 09:10:29;;;;;;;;;39.00;29.75;;;;;4.45;71.86;101220.81;6144154;23;45835;-79
2022/12/05 09:12:58;;;;;;;;;42.00;29.50;;;;;4.51;71.75;101228.38;6117459;23;46324;-78
2022/12/05 09:15:23;;;;;;;;;24.75;21.00;;;;;4.51;71.43;101228.38;6144299;23;46177;-75
2022/12/05 09:17:49;;;;;;;;;32.50;24.50;;;;;4.42;71.61;101213.16;6142155;23;45555;-77
2022/12/05 09:20:14;;;;;;;;;34.00;26.25;;;;;4.51;71.59;101228.38;6144056;23;45727;-79
2022/12/05 09:22:40;;;;;;;;;32.50;26.75;;;;;4.45;71.64;101226.00;6144265;23;45576;-75
2022/12/05 09:25:07;;;;;;;;;34.50;30.25;;;;;4.51;71.68;101237.91;6143212;23;46219;-76
2022/12/05 09:27:33;;;;;;;;;33.25;24.00;;;;;4.52;72.03;101230.09;6142438;23;45950;-77
2022/12/05 09:29:58;;;;;;;;;36.00;30.00;;;;;4.50;71.76;101241.41;6144162;23;45759;-79
2022/12/05 09:32:24;;;;;;;;;30.50;24.00;;;;;4.50;71.91;101239.66;6143103;23;47512;-76
2022/12/05 09:34:49;;;;;;;;;37.75;33.00;;;;;4.51;71.94;101235.31;6143451;23;46451;-80
2022/12/05 09:37:16;;;;;;;;;32.75;28.25;;;;;4.54;71.55;101235.19;6142029;23;45846;-76
2022/12/05 09:39:43;;;;;;;;;30.75;24.75;;;;;4.58;71.50;101242.00;6117279;23;45823;-77
2022/12/05 09:42:24;;;;;;;;;22.00;18.50;;;;;4.58;71.25;101244.59;6143775;23;46659;-77
2022/12/05 09:45:18;;;;;;;;;30.50;26.75;;;;;4.58;71.54;101248.03;6143121;23;46554;-76
2022/12/05 09:48:05;;;;;;;;;37.50;30.75;;;;;4.58;71.12;101254.97;6142121;23;45780;-77
2022/12/05 09:50:43;;;;;;;;;42.00;30.00;;;;;4.55;71.23;101250.72;6144588;23;45811;-79
2022/12/05 09:53:20;;;;;;;;;36.00;31.00;;;;;4.61;71.08;101255.69;6144702;23;45658;-77
2022/12/05 09:55:51;;;;;;;;;33.25;25.75;;;;;4.65;71.04;101257.28;6142342;23;46678;-79
2022/12/05 09:58:38;;;;;;;;;35.00;30.50;;;;;4.68;71.20;101258.91;6143618;23;45947;-77
2022/12/05 10:01:32;;;;;;;;;41.00;30.25;;;;;4.71;70.97;101261.38;6117291;23;45744;-77
2022/12/05 10:04:16;;;;;;;;;34.75;28.75;;;;;4.70;70.86;101259.69;6143282;23;47446;-77
2022/12/05 10:06:53;;;;;;;;;34.75;28.50;;;;;4.70;70.65;101254.50;6143145;23;46118;-75
2022/12/05 10:09:33;;;;;;;;;34.25;29.50;;;;;4.73;70.66;101267.38;6143586;23;45745;-77
2022/12/05 10:12:08;;;;;;;;;33.75;24.00;;;;;4.74;70.76;101263.91;6143733;23;46114;-74
2022/12/05 10:14:42;;;;;;;;;38.25;28.50;;;;;4.79;70.59;101263.72;6143235;23;46150;-75
2022/12/05 10:17:22;;;;;;;;;41.75;31.00;;;;;4.80;70.56;101265.41;6142831;23;46523;-76
2022/12/05 10:19:51;;;;;;;;;34.25;28.00;;;;;4.81;70.77;101267.94;6143781;23;45977;-75
2022/12/05 10:22:28;;;;;;;;;31.25;22.00;;;;;4.83;70.37;101266.16;6143579;23;45921;-80
2022/12/05 10:25:00;;;;;;;;;40.00;31.25;;;;;4.76;70.42;101259.47;6144425;23;46426;-78
2022/12/05 10:27:50;;;;;;;;;38.50;27.75;;;;;4.86;70.52;101276.41;6143890;23;46293;-79
2022/12/05 10:30:17;;;;;;;;;35.75;28.50;;;;;4.88;70.04;101264.22;6123692;23;45557;-80
2022/12/05 10:32:55;;;;;;;;;36.25;30.75;;;;;4.92;70.07;101273.59;6145561;23;46013;-78
2022/12/05 10:35:22;;;;;;;;;34.50;28.50;;;;;4.93;70.08;101267.50;6145320;23;45755;-77
2022/12/05 10:37:52;;;;;;;;;28.25;25.00;;;;;4.98;70.34;101269.91;6143106;23;47251;-79
2022/12/05 10:40:18;;;;;;;;;39.50;31.00;;;;;5.00;69.95;101276.75;6144371;23;45620;-80
2022/12/05 10:42:44;;;;;;;;;34.00;28.25;;;;;5.01;69.69;101262.88;6119130;23;45888;-79
2022/12/05 10:45:17;;;;;;;;;38.50;29.75;;;;;5.03;70.23;101279.22;6144858;23;47517;-77
2022/12/05 10:47:42;;;;;;;;;36.00;29.75;;;;;4.98;69.43;101262.13;6144831;23;46094;-80
2022/12/05 10:50:29;;;;;;;;;36.75;32.00;;;;;5.03;69.91;101273.19;6119161;23;45697;-79
2022/12/05 10:52:57;;;;;;;;;30.25;28.50;;;;;4.99;69.46;101264.66;6145247;23;45613;-79
2022/12/05 10:55:28;;;;;;;;;32.00;25.00;;;;;5.01;69.28;101268.06;6144093;23;46315;-78
2022/12/05 10:58:09;;;;;;;;;38.00;27.25;;;;;4.96;69.02;101262.19;6144279;23;46554;-79
2022/12/05 11:00:34;;;;;;;;;39.50;32.25;;;;;4.98;68.75;101267.31;6144545;23;45598;-80
2022/12/05 11:03:03;;;;;;;;;33.75;28.00;;;;;4.99;69.41;101269.84;6118390;23;45562;-79
2022/12/05 11:05:33;;;;;;;;;31.25;26.25;;;;;5.00;69.02;101262.91;6143997;23;46398;-78
2022/12/05 11:07:59;;;;;;;;;34.75;31.00;;;;;5.04;68.96;101270.53;6144105;23;46219;-80
2022/12/05 11:10:32;;;;;;;;;34.75;26.00;;;;;5.01;68.99;101265.47;6144675;23;45530;-80
2022/12/05 11:12:59;;;;;;;;;41.50;32.75;;;;;5.01;68.80;101269.81;6145586;23;45912;-77
2022/12/05 11:15:29;;;;;;;;;47.00;32.50;;;;;4.97;69.08;101270.81;6144746;23;47315;-79
2022/12/05 11:18:00;;;;;;;;;38.00;30.75;;;;;4.94;69.09;101258.81;6143783;23;46286;-80
2022/12/05 11:20:34;;;;;;;;;40.75;30.50;;;;;4.99;69.08;101267.25;6118436;23;45934;-79
2022/12/05 11:23:16;;;;;;;;;44.50;35.25;;;;;4.96;68.92;101271.75;6145135;23;45522;-80
2022/12/05 11:25:42;;;;;;;;;44.25;37.75;;;;;4.95;69.05;101268.28;6143130;23;46521;-78
2022/12/05 11:28:16;;;;;;;;;39.25;32.00;;;;;4.99;69.42;101279.41;6116850;23;48302;-78
2022/12/05 11:30:54;;;;;;;;;38.75;33.75;;;;;4.99;69.50;101274.22;6145745;23;45633;-78
2022/12/05 11:33:22;;;;;;;;;42.75;34.25;;;;;4.97;69.50;101268.22;6144823;23;45922;-79
2022/12/05 11:35:50;;;;;;;;;34.00;27.00;;;;;5.02;69.51;101269.72;6143079;23;46426;-77
2022/12/05 11:38:18;;;;;;;;;41.00;33.50;;;;;5.00;69.35;101275.91;6143956;23;46061;-78
2022/12/05 11:41:13;;;;;;;;;36.50;27.25;;;;;4.97;69.17;101282.03;6144356;23;46012;-77
2022/12/05 11:44:17;;;;;;;;;48.25;38.50;;;;;4.90;69.05;101269.38;6144502;23;45569;-77
2022/12/05 11:46:54;;;;;;;;;37.00;31.75;;;;;4.92;68.98;101270.97;5994909;23;46335;-77
2022/12/05 11:49:56;;;;;;;;;44.00;37.25;;;;;4.88;69.17;101274.59;6126956;23;46114;-78
2022/12/05 11:52:50;;;;;;;;;34.50;31.25;;;;;4.86;69.09;101276.41;6144750;23;45665;-78
2022/12/05 11:55:36;;;;;;;;;45.75;36.50;;;;;4.86;69.35;101273.81;6144844;23;45726;-78
2022/12/05 11:58:21;;;;;;;;;33.25;26.50;;;;;4.85;68.87;101269.53;6143350;23;46334;-78